Airport View

Enter AWOS ICAO identifier for current METAR.

ex. KFNL

KBRL 262353Z AUTO 25007KT 5SM BR OVC004 M04/M06 A2995 RMK AO2 SLP153 T10391056 11022 21039 53003 $

27 Jan 2020 00:46

Frequency: 118.025

Phone: 319-752-6246

Other Area AWOS: KFSW - KMPZ - KEOK - KMQB

TAF KBRL 262342Z 2700/2724 26005KT 5SM BR OVC006 FM270600 VRB04KT 1SM BR OVC002 FM271600 32005KT 5SM BR BKN006 OVC015